Time;durP1;ratioP1;P1;durP2;ratioP2;P2;SDS_P1;SDS_P2;PMS_P1;PMS_P2;Temp;Humidity;BMP_temperature;BMP_pressure;BME280_temperature;BME280_humidity;BME280_pressure;Samples;Min_cycle;Max_cycle;Signal;HPM_P1;HPM_P2
2023/10/10 00:00:57;;;;;;;10.38;6.10;;;;;;;14.94;100.00;99072.25;15293342;19;20019;-54
2023/10/10 00:06:24;;;;;;;9.95;6.28;;;;;;;14.93;100.00;99074.09;15285235;19;20486;-56
2023/10/10 00:11:53;;;;;;;12.00;6.25;;;;;;;14.97;100.00;99068.34;15293255;19;20014;-51
2023/10/10 00:17:20;;;;;;;9.65;6.85;;;;;;;14.97;100.00;99073.75;15291495;19;20541;-55
2023/10/10 00:22:58;;;;;;;12.00;7.35;;;;;;;15.00;100.00;99079.69;15288530;19;20092;-52
2023/10/10 00:28:27;;;;;;;9.68;7.15;;;;;;;15.03;100.00;99073.91;15289584;19;20094;-54
2023/10/10 00:33:52;;;;;;;9.55;7.15;;;;;;;15.02;100.00;99064.09;15289054;19;20014;-53
2023/10/10 00:39:35;;;;;;;10.43;6.93;;;;;;;15.03;100.00;99070.38;15279464;19;20441;-54
2023/10/10 00:45:04;;;;;;;10.68;7.20;;;;;;;15.01;100.00;99056.97;15292435;19;20014;-52
2023/10/10 00:50:34;;;;;;;11.30;6.55;;;;;;;15.01;100.00;99067.81;15288005;19;20097;-54
2023/10/10 00:56:00;;;;;;;11.82;6.85;;;;;;;15.02;100.00;99068.69;15289911;19;20035;-56
2023/10/10 01:01:27;;;;;;;13.57;6.47;;;;;;;15.02;100.00;99068.69;15287632;19;20074;-56
2023/10/10 01:06:52;;;;;;;10.73;6.82;;;;;;;15.01;100.00;99069.69;15287140;19;20038;-54
2023/10/10 01:12:17;;;;;;;8.65;6.18;;;;;;;15.00;100.00;99059.84;15278148;19;20014;-51
2023/10/10 01:17:45;;;;;;;13.40;6.90;;;;;;;14.98;100.00;99051.03;15287654;19;20018;-55
2023/10/10 01:23:14;;;;;;;8.73;6.30;;;;;;;14.94;100.00;99040.53;15284175;19;20426;-52
2023/10/10 01:28:39;;;;;;;9.18;6.20;;;;;;;14.91;100.00;99048.19;15284594;19;20029;-51
2023/10/10 01:34:08;;;;;;;9.07;6.00;;;;;;;14.89;100.00;99044.78;15284743;19;20031;-54
2023/10/10 01:39:49;;;;;;;11.02;6.38;;;;;;;14.87;100.00;99052.28;15287185;19;20026;-54
2023/10/10 01:45:18;;;;;;;9.73;6.20;;;;;;;14.87;100.00;99050.41;15281883;19;20089;-55
2023/10/10 01:50:46;;;;;;;11.05;6.88;;;;;;;14.89;100.00;99048.34;15285256;19;20700;-51
2023/10/10 01:56:14;;;;;;;11.40;6.90;;;;;;;14.89;100.00;99063.78;15285653;19;20021;-54
2023/10/10 02:01:39;;;;;;;9.77;6.25;;;;;;;14.91;100.00;99061.75;15284449;19;20077;-53
2023/10/10 02:07:06;;;;;;;11.57;6.80;;;;;;;14.90;100.00;99065.47;15283477;19;20014;-52
2023/10/10 02:12:34;;;;;;;9.80;6.13;;;;;;;14.87;100.00;99057.69;15278550;19;20375;-51
2023/10/10 02:18:04;;;;;;;11.05;7.00;;;;;;;14.86;100.00;99040.56;15279210;19;20017;-52
2023/10/10 02:23:35;;;;;;;9.45;5.97;;;;;;;14.85;100.00;99041.59;15282094;19;20018;-54
2023/10/10 02:34:42;;;;;;;9.20;5.90;;;;;;;14.86;100.00;99042.44;15286934;19;20535;-52
2023/10/10 02:40:14;;;;;;;8.15;6.35;;;;;;;14.82;100.00;99054.66;15283988;19;20034;-54
2023/10/10 02:45:44;;;;;;;10.25;6.50;;;;;;;14.83;100.00;99057.19;15278504;19;20022;-54
2023/10/10 02:51:15;;;;;;;11.25;6.75;;;;;;;14.84;100.00;99068.91;15274425;19;20007;-55
2023/10/10 02:56:43;;;;;;;12.65;6.97;;;;;;;14.83;100.00;99053.63;15279317;19;20066;-55
2023/10/10 03:02:18;;;;;;;11.60;7.30;;;;;;;14.81;100.00;99063.81;15280742;19;20014;-54
2023/10/10 03:07:50;;;;;;;10.93;6.90;;;;;;;14.81;100.00;99059.25;15279415;19;20018;-53
2023/10/10 03:13:27;;;;;;;12.05;7.55;;;;;;;14.83;100.00;99059.06;15276714;19;20032;-54
2023/10/10 03:19:13;;;;;;;10.85;7.85;;;;;;;14.83;100.00;99065.31;15274175;19;20035;-56
2023/10/10 03:25:09;;;;;;;11.43;8.07;;;;;;;14.86;100.00;99056.00;15273147;19;20101;-52
2023/10/10 03:30:50;;;;;;;10.77;7.30;;;;;;;14.97;100.00;99061.06;15276244;19;20042;-53
2023/10/10 03:36:31;;;;;;;10.68;7.63;;;;;;;15.04;100.00;99062.03;15277008;19;20569;-54
2023/10/10 05:24:02;;;;;;;9.38;7.72;;;;;;;15.00;100.00;99060.69;15261115;19;20023;-55
2023/10/10 05:29:29;;;;;;;11.20;7.75;;;;;;;14.99;100.00;99064.44;15251587;19;20043;-49
2023/10/10 05:34:58;;;;;;;10.65;7.55;;;;;;;15.01;100.00;99062.38;15266081;19;20041;-52
2023/10/10 05:40:24;;;;;;;10.20;7.32;;;;;;;15.03;100.00;99070.38;15264554;19;20021;-52
2023/10/10 05:45:50;;;;;;;12.23;7.38;;;;;;;15.09;100.00;99065.09;15265031;19;20018;-53
2023/10/10 05:51:18;;;;;;;11.23;7.40;;;;;;;15.18;100.00;99073.19;15262738;19;20024;-50
2023/10/10 05:56:46;;;;;;;10.02;7.50;;;;;;;15.22;100.00;99082.69;15263549;19;20480;-54
2023/10/10 06:02:11;;;;;;;12.98;9.13;;;;;;;15.24;100.00;99075.19;15251312;19;20347;-52
2023/10/10 06:07:42;;;;;;;12.70;8.95;;;;;;;15.17;100.00;99064.19;15103441;19;1007197;-53
2023/10/10 06:13:11;;;;;;;12.75;9.30;;;;;;;15.12;100.00;99076.59;15262942;19;20010;-52
2023/10/10 06:18:36;;;;;;;11.23;8.45;;;;;;;15.14;100.00;99083.56;15263625;19;20061;-52
2023/10/10 06:24:03;;;;;;;12.10;9.70;;;;;;;15.17;100.00;99088.63;15259741;19;20035;-51
2023/10/10 06:29:29;;;;;;;10.80;8.60;;;;;;;15.18;100.00;99097.63;15260111;19;20011;-51
2023/10/10 06:35:14;;;;;;;12.93;8.98;;;;;;;15.20;100.00;99115.44;15228212;19;20806;-49
2023/10/10 06:40:52;;;;;;;10.75;8.32;;;;;;;15.25;100.00;99101.31;15261093;19;20022;-54
2023/10/10 06:46:19;;;;;;;11.00;9.18;;;;;;;15.33;100.00;99105.88;15259173;19;20014;-53
2023/10/10 06:51:45;;;;;;;12.32;8.63;;;;;;;15.40;100.00;99107.72;15259376;19;20018;-53
2023/10/10 06:57:17;;;;;;;10.25;8.18;;;;;;;15.49;100.00;99113.13;15259935;19;20040;-51
2023/10/10 07:02:47;;;;;;;10.30;7.70;;;;;;;15.55;100.00;99115.16;15253680;19;20032;-53
2023/10/10 07:08:19;;;;;;;12.77;8.65;;;;;;;15.59;100.00;99124.63;15252203;19;20021;-56
2023/10/10 07:13:58;;;;;;;11.55;8.35;;;;;;;15.65;100.00;99134.78;15255136;19;20014;-54
2023/10/10 07:19:29;;;;;;;11.88;8.45;;;;;;;15.75;100.00;99147.31;15254370;19;20014;-56
2023/10/10 07:25:06;;;;;;;10.83;7.90;;;;;;;15.77;100.00;99131.69;15255254;19;20026;-55
2023/10/10 07:30:36;;;;;;;12.27;7.90;;;;;;;15.79;100.00;99135.06;15254460;19;20010;-56
2023/10/10 07:36:03;;;;;;;13.38;7.32;;;;;;;15.83;100.00;99126.38;15247138;19;20467;-55
2023/10/10 07:41:33;;;;;;;11.88;7.22;;;;;;;15.88;100.00;99123.16;15251004;19;20011;-54
2023/10/10 07:47:25;;;;;;;10.55;7.45;;;;;;;15.97;100.00;99118.53;15257782;19;20017;-54
2023/10/10 07:52:51;;;;;;;8.98;6.97;;;;;;;16.09;100.00;99119.81;15252589;19;20618;-55
2023/10/10 07:58:16;;;;;;;10.07;6.93;;;;;;;16.17;100.00;99116.16;15260186;19;20041;-54
2023/10/10 08:04:04;;;;;;;8.40;6.20;;;;;;;16.25;100.00;99116.13;15267440;19;20364;-55
2023/10/10 08:09:31;;;;;;;11.68;7.65;;;;;;;16.36;100.00;99106.69;15259486;19;20118;-55
2023/10/10 08:15:10;;;;;;;10.98;7.15;;;;;;;16.44;100.00;99105.78;15267950;19;20010;-54
2023/10/10 08:26:26;;;;;;;10.43;6.20;;;;;;;16.44;100.00;99079.44;15263811;19;20024;-57
2023/10/10 08:31:51;;;;;;;10.23;6.07;;;;;;;16.42;100.00;99050.72;15261827;19;20672;-57
2023/10/10 08:37:19;;;;;;;10.27;6.55;;;;;;;16.49;100.00;99055.25;15260947;19;20026;-56
2023/10/10 08:42:46;;;;;;;9.55;6.18;;;;;;;16.56;100.00;99049.91;15256350;19;20380;-53
2023/10/10 08:48:12;;;;;;;8.55;6.13;;;;;;;16.66;100.00;99051.50;15267702;19;20081;-55
2023/10/10 08:53:41;;;;;;;8.57;5.68;;;;;;;16.76;100.00;99038.47;15266379;19;20014;-54
2023/10/10 08:59:06;;;;;;;6.88;5.40;;;;;;;16.87;100.00;99046.22;15266392;19;20492;-55
2023/10/10 09:04:31;;;;;;;6.43;5.30;;;;;;;17.00;100.00;99012.06;15261618;19;20082;-52
2023/10/10 09:10:13;;;;;;;7.50;5.05;;;;;;;17.10;100.00;99007.19;15261062;19;20488;-55
2023/10/10 09:15:40;;;;;;;7.70;4.75;;;;;;;17.18;100.00;98998.06;15256036;19;20019;-56
2023/10/10 09:21:21;;;;;;;6.50;4.60;;;;;;;17.37;100.00;98983.00;15263568;19;20011;-55
2023/10/10 09:26:59;;;;;;;6.68;4.85;;;;;;;17.41;100.00;98981.59;15257857;19;20011;-54
2023/10/10 09:32:35;;;;;;;6.20;4.18;;;;;;;17.54;100.00;98970.84;15258939;19;20010;-55
2023/10/10 09:38:02;;;;;;;6.22;4.80;;;;;;;17.58;100.00;98959.56;15263130;19;20475;-53
2023/10/10 09:43:45;;;;;;;5.50;4.30;;;;;;;17.67;100.00;98933.88;15260982;19;20019;-56
2023/10/10 09:49:29;;;;;;;4.63;3.67;;;;;;;17.91;100.00;98934.50;15255274;19;20078;-53
2023/10/10 09:54:55;;;;;;;5.18;3.72;;;;;;;18.10;100.00;98903.84;15264597;19;20023;-56
2023/10/10 10:00:31;;;;;;;6.20;3.97;;;;;;;18.13;100.00;98902.59;15260426;19;20762;-55
2023/10/10 10:06:04;;;;;;;6.90;3.40;;;;;;;18.24;100.00;98899.34;15263324;19;20024;-54
2023/10/10 10:11:43;;;;;;;5.82;3.50;;;;;;;18.39;100.00;98899.25;15261734;19;20013;-52
2023/10/10 10:17:19;;;;;;;5.70;3.60;;;;;;;18.57;100.00;98884.22;15255329;19;20021;-52
2023/10/10 10:22:53;;;;;;;5.20;3.50;;;;;;;18.69;100.00;98877.13;15251108;19;20022;-53
2023/10/10 10:28:28;;;;;;;3.97;3.13;;;;;;;18.72;100.00;98857.63;15260321;19;20525;-53
2023/10/10 10:34:23;;;;;;;5.20;2.70;;;;;;;18.75;100.00;98862.69;15260475;19;20021;-56
2023/10/10 10:45:38;;;;;;;6.28;2.70;;;;;;;19.05;100.00;98859.66;15255558;19;20037;-57
2023/10/10 10:51:26;;;;;;;4.45;2.65;;;;;;;19.18;100.00;98842.47;15247005;19;20021;-56
2023/10/10 10:56:51;;;;;;;5.53;2.78;;;;;;;19.31;100.00;98836.19;15260669;19;20077;-53
2023/10/10 11:02:31;;;;;;;4.43;2.60;;;;;;;19.43;100.00;98808.25;15259987;19;20015;-55
2023/10/10 11:08:11;;;;;;;6.53;2.58;;;;;;;19.43;100.00;98802.78;15259794;19;20949;-55
2023/10/10 11:13:36;;;;;;;5.13;2.63;;;;;;;19.50;100.00;98815.41;15257548;19;20018;-51
2023/10/10 11:19:11;;;;;;;4.50;2.55;;;;;;;19.53;100.00;98825.06;15253331;19;20018;-53
2023/10/10 11:24:40;;;;;;;3.53;2.33;;;;;;;19.70;100.00;98809.91;15247688;19;20019;-57
2023/10/10 11:30:11;;;;;;;3.53;2.10;;;;;;;19.97;100.00;98798.97;15256060;19;20019;-56
2023/10/10 11:35:37;;;;;;;4.38;2.60;;;;;;;20.19;100.00;98781.47;15270140;19;20007;-51
2023/10/10 11:41:08;;;;;;;3.05;2.33;;;;;;;20.32;100.00;98773.22;15268108;19;20109;-54
2023/10/10 11:46:33;;;;;;;5.45;2.20;;;;;;;20.44;100.00;98765.16;15269870;19;20023;-57
2023/10/10 11:51:57;;;;;;;4.03;2.50;;;;;;;20.42;100.00;98770.88;15267868;19;20025;-55
2023/10/10 11:57:28;;;;;;;3.40;2.15;;;;;;;20.54;100.00;98760.06;15260314;19;20122;-56
2023/10/10 12:02:55;;;;;;;3.90;2.20;;;;;;;20.70;100.00;98757.88;15267096;19;20086;-55
2023/10/10 12:08:22;;;;;;;5.85;1.90;;;;;;;20.99;100.00;98755.66;15271338;19;20021;-54
2023/10/10 12:13:51;;;;;;;3.72;2.20;;;;;;;21.18;100.00;98746.44;15267259;19;20018;-55
2023/10/10 12:19:16;;;;;;;4.22;2.08;;;;;;;21.31;100.00;98755.63;15268317;19;20010;-52
2023/10/10 12:24:41;;;;;;;3.75;1.92;;;;;;;21.45;100.00;98746.22;15267618;19;20043;-55
2023/10/10 12:30:12;;;;;;;2.80;1.90;;;;;;;21.57;100.00;98734.53;15256927;19;21222;-54
2023/10/10 12:35:37;;;;;;;5.53;2.15;;;;;;;21.57;100.00;98729.88;15270607;19;20018;-58
2023/10/10 12:41:05;;;;;;;3.63;2.05;;;;;;;21.64;100.00;98699.69;15265090;19;20519;-57
2023/10/10 12:46:34;;;;;;;5.03;2.10;;;;;;;21.78;100.00;98703.97;15266147;19;20028;-55
2023/10/10 12:52:01;;;;;;;3.42;1.98;;;;;;;22.01;100.00;98681.31;15271063;19;20018;-56
2023/10/10 12:57:26;;;;;;;3.88;1.80;;;;;;;22.16;100.00;98680.94;15275092;19;20014;-55
2023/10/10 13:02:54;;;;;;;3.72;1.65;;;;;;;22.37;100.00;98665.03;15265815;19;20010;-50
2023/10/10 13:08:22;;;;;;;2.80;1.58;;;;;;;22.44;100.00;98665.81;15270999;19;20015;-56
2023/10/10 13:13:51;;;;;;;3.17;1.70;;;;;;;22.65;100.00;98652.63;15267019;19;20025;-55
2023/10/10 13:19:21;;;;;;;3.45;1.50;;;;;;;22.82;100.00;98644.53;15272701;19;20531;-52
2023/10/10 13:24:52;;;;;;;3.17;1.65;;;;;;;23.09;100.00;98631.22;15273908;19;20271;-57
2023/10/10 13:30:17;;;;;;;3.78;1.77;;;;;;;23.28;100.00;98617.38;15268128;19;20014;-57
2023/10/10 13:35:44;;;;;;;4.00;1.52;;;;;;;23.36;100.00;98625.25;15270269;19;20027;-53
2023/10/10 13:41:09;;;;;;;3.60;1.58;;;;;;;23.47;100.00;98614.47;15268404;19;20017;-52
2023/10/10 13:46:35;;;;;;;3.92;1.60;;;;;;;23.31;100.00;98616.91;15274815;19;20018;-57
2023/10/10 13:52:05;;;;;;;4.20;1.80;;;;;;;23.20;100.00;98609.50;15273282;19;20061;-59
2023/10/10 13:57:30;;;;;;;5.13;1.63;;;;;;;23.16;100.00;98616.50;15272553;19;20011;-58
2023/10/10 14:02:59;;;;;;;5.72;1.80;;;;;;;23.37;100.00;98604.09;15266690;19;20010;-54
2023/10/10 14:08:30;;;;;;;3.72;1.58;;;;;;;23.68;100.00;98599.25;15266329;19;20452;-50
2023/10/10 14:13:57;;;;;;;3.10;1.50;;;;;;;23.90;100.00;98579.34;15268454;19;20014;-56
2023/10/10 14:19:23;;;;;;;4.15;1.60;;;;;;;24.09;100.00;98585.53;15270387;19;20024;-54
2023/10/10 14:24:57;;;;;;;6.57;1.83;;;;;;;24.04;100.00;98579.94;15270336;19;20018;-60
2023/10/10 14:30:25;;;;;;;4.88;1.70;;;;;;;23.97;100.00;98569.91;15268832;19;20094;-55
2023/10/10 14:35:49;;;;;;;5.10;1.65;;;;;;;23.93;100.00;98581.59;15266109;19;20009;-51
2023/10/10 14:41:19;;;;;;;6.30;1.63;;;;;;;23.75;100.00;98572.47;15263094;19;20031;-52
2023/10/10 14:46:43;;;;;;;3.80;1.52;;;;;;;23.66;100.00;98574.75;15267160;19;20015;-54
2023/10/10 14:52:10;;;;;;;4.82;1.90;;;;;;;23.82;100.00;98575.06;15267909;19;20750;-57
2023/10/10 14:57:41;;;;;;;3.22;1.60;;;;;;;23.92;100.00;98577.19;15268866;19;20010;-49
2023/10/10 15:03:12;;;;;;;;;;;;;;;24.14;100.00;98578.19;15269084;19;20022;-53
2023/10/10 15:08:43;;;;;;;4.03;1.60;;;;;;;24.54;100.00;98579.19;15261490;19;19919;-55
2023/10/10 15:14:13;;;;;;;4.30;1.77;;;;;;;24.70;100.00;98573.97;15264301;19;20045;-56
2023/10/10 15:19:41;;;;;;;5.50;1.95;;;;;;;24.60;100.00;98569.94;15271882;19;20349;-55
2023/10/10 15:25:14;;;;;;;4.63;1.80;;;;;;;24.52;100.00;98564.00;15266683;19;20042;-53
2023/10/10 15:30:44;;;;;;;7.38;1.92;;;;;;;24.40;100.00;98564.09;15266664;19;20022;-54
2023/10/10 15:36:11;;;;;;;5.30;1.73;;;;;;;24.09;100.00;98558.00;15266370;19;20074;-53
2023/10/10 15:41:37;;;;;;;3.88;1.73;;;;;;;23.75;100.00;98560.63;15253784;19;20022;-53
2023/10/10 15:47:04;;;;;;;6.45;2.10;;;;;;;23.40;100.00;98565.16;15265157;19;20090;-54
2023/10/10 15:52:33;;;;;;;3.72;1.67;;;;;;;22.96;100.00;98578.38;15265869;19;20027;-52
2023/10/10 15:57:59;;;;;;;;;;;;;;;22.45;100.00;98579.63;15265467;19;20007;-51
2023/10/10 16:03:27;;;;;;;6.50;2.00;;;;;;;22.13;100.00;98579.88;15263950;19;20443;-51
2023/10/10 16:08:52;;;;;;;7.03;2.10;;;;;;;21.90;100.00;98585.25;15262863;19;20017;-53
2023/10/10 16:14:18;;;;;;;3.90;1.77;;;;;;;21.66;100.00;98585.97;15250258;19;20546;-53
2023/10/10 16:19:45;;;;;;;3.45;1.92;;;;;;;21.40;100.00;98581.59;15269978;19;20364;-54
2023/10/10 16:25:22;;;;;;;4.55;2.03;;;;;;;21.16;100.00;98578.69;15275326;19;20014;-53
2023/10/10 16:30:47;;;;;;;5.28;1.88;;;;;;;20.96;100.00;98581.63;15275156;19;20018;-51
2023/10/10 16:36:19;;;;;;;4.80;1.63;;;;;;;20.78;100.00;98585.16;15279405;19;20450;-53
2023/10/10 16:41:47;;;;;;;4.15;2.05;;;;;;;20.58;100.00;98577.94;15198754;19;20529;-54
2023/10/10 16:47:16;;;;;;;4.80;1.58;;;;;;;20.47;100.00;98579.47;15266145;19;20055;-49
2023/10/10 16:52:44;;;;;;;4.53;1.83;;;;;;;20.34;100.00;98585.06;15275339;19;20479;-52
2023/10/10 16:58:26;;;;;;;6.18;1.90;;;;;;;20.20;100.00;98576.09;15275692;19;20014;-55
2023/10/10 17:03:54;;;;;;;4.65;1.80;;;;;;;20.05;100.00;98583.78;15273991;19;20093;-56
2023/10/10 17:09:23;;;;;;;3.97;1.90;;;;;;;19.90;100.00;98593.09;15275927;19;20011;-52
2023/10/10 17:14:48;;;;;;;4.15;1.90;;;;;;;19.78;100.00;98592.06;15274160;19;20027;-53
2023/10/10 17:20:16;;;;;;;4.03;2.03;;;;;;;19.71;100.00;98597.56;15264360;19;20473;-51
2023/10/10 17:25:45;;;;;;;4.50;1.92;;;;;;;19.61;100.00;98603.47;15271698;19;20345;-51
2023/10/10 17:31:10;;;;;;;5.53;2.42;;;;;;;19.52;100.00;98591.94;15272509;19;20467;-53
2023/10/10 17:36:35;;;;;;;3.80;2.10;;;;;;;19.40;100.00;98580.84;15273830;19;20380;-57
2023/10/10 17:42:02;;;;;;;4.38;2.30;;;;;;;19.32;100.00;98589.28;15273208;19;20531;-48
2023/10/10 17:47:28;;;;;;;4.68;2.10;;;;;;;19.21;100.00;98585.31;15272457;19;20762;-47
2023/10/10 17:52:56;;;;;;;5.13;2.28;;;;;;;19.11;100.00;98586.81;15259885;19;20017;-48
2023/10/10 17:58:25;;;;;;;5.18;2.20;;;;;;;19.00;100.00;98585.56;15271820;19;20089;-49
2023/10/10 18:03:52;;;;;;;4.55;2.40;;;;;;;18.93;100.00;98596.44;15271440;19;20014;-54
2023/10/10 18:09:14;;;;;;;5.53;2.40;;;;;;;18.85;100.00;98591.22;15269610;19;20042;-48
2023/10/10 18:14:42;;;;;;;5.10;2.20;;;;;;;18.83;100.00;98596.03;15271365;19;20014;-53
2023/10/10 18:20:14;;;;;;;4.90;2.03;;;;;;;18.85;100.00;98604.88;15269343;19;20021;-51
2023/10/10 18:25:41;;;;;;;5.15;2.40;;;;;;;18.82;100.00;98597.09;15252191;19;20019;-56
2023/10/10 18:31:09;;;;;;;4.85;2.25;;;;;;;18.81;100.00;98598.13;15261388;19;20057;-52
2023/10/10 18:36:36;;;;;;;7.68;2.20;;;;;;;18.80;100.00;98600.03;15265880;19;20024;-52
2023/10/10 18:42:04;;;;;;;5.18;1.90;;;;;;;18.77;100.00;98592.25;15266957;19;20380;-48
2023/10/10 18:47:34;;;;;;;3.63;1.83;;;;;;;18.74;100.00;98595.41;15267836;19;20474;-49
2023/10/10 18:53:01;;;;;;;4.25;2.10;;;;;;;18.66;100.00;98585.53;15263499;19;20355;-48
2023/10/10 18:58:27;;;;;;;4.10;2.13;;;;;;;18.61;100.00;98588.91;15261689;19;20090;-49
2023/10/10 19:03:56;;;;;;;4.75;2.45;;;;;;;18.56;100.00;98582.38;15262268;19;20609;-48
2023/10/10 19:09:23;;;;;;;5.28;2.30;;;;;;;18.45;100.00;98572.97;15264038;19;20493;-51
2023/10/10 19:14:47;;;;;;;5.25;2.20;;;;;;;18.33;100.00;98578.19;15264936;19;20011;-52
2023/10/10 19:20:21;;;;;;;4.22;2.20;;;;;;;18.21;100.00;98566.19;15264946;19;20010;-50
2023/10/10 19:25:53;;;;;;;4.72;2.20;;;;;;;18.12;100.00;98568.28;15260338;19;20024;-48
2023/10/10 19:31:18;;;;;;;5.78;2.42;;;;;;;18.03;100.00;98564.94;15259982;19;20017;-55
2023/10/10 19:36:47;;;;;;;3.90;2.10;;;;;;;18.02;100.00;98571.41;15266247;19;20490;-47
2023/10/10 19:42:12;;;;;;;7.97;2.30;;;;;;;18.02;100.00;98565.97;15266403;19;20022;-50
2023/10/10 19:47:37;;;;;;;4.13;2.00;;;;;;;18.00;100.00;98566.16;15260390;19;20597;-49
2023/10/10 19:53:05;;;;;;;5.72;2.30;;;;;;;18.02;100.00;98561.34;15267077;19;20401;-50
2023/10/10 19:58:30;;;;;;;4.60;2.10;;;;;;;18.04;100.00;98565.75;15276569;19;20033;-50
2023/10/10 20:03:56;;;;;;;3.45;2.25;;;;;;;18.12;100.00;98552.78;15272848;19;20013;-47
2023/10/10 20:09:24;;;;;;;6.15;2.33;;;;;;;18.09;100.00;98552.34;15279657;19;20021;-47
2023/10/10 20:14:48;;;;;;;5.72;2.00;;;;;;;18.00;100.00;98560.69;15277114;19;20015;-53
2023/10/10 20:20:15;;;;;;;4.18;2.30;;;;;;;18.00;100.00;98551.69;15278513;19;20021;-49
2023/10/10 20:25:51;;;;;;;4.90;2.08;;;;;;;17.99;100.00;98553.56;15277426;19;20392;-55
2023/10/10 20:31:16;;;;;;;4.35;2.00;;;;;;;17.89;100.00;98555.00;15265220;19;20021;-47
2023/10/10 20:36:42;;;;;;;3.92;2.20;;;;;;;17.75;100.00;98552.22;15271508;19;20479;-51
2023/10/10 20:42:09;;;;;;;2.90;2.10;;;;;;;17.67;100.00;98546.97;15276485;19;20037;-47
2023/10/10 20:47:34;;;;;;;6.75;2.65;;;;;;;17.60;100.00;98546.09;15277479;19;20073;-51
2023/10/10 20:53:01;;;;;;;5.13;2.80;;;;;;;17.53;100.00;98538.75;15277069;19;20018;-50
2023/10/10 20:58:22;;;;;;;5.95;3.30;;;;;;;17.48;100.00;98530.31;15276732;19;20025;-51
2023/10/10 21:03:47;;;;;;;3.53;2.40;;;;;;;17.44;100.00;98525.50;15263553;19;20021;-53
2023/10/10 21:09:12;;;;;;;4.63;2.50;;;;;;;17.40;100.00;98528.63;15274517;19;20014;-48
2023/10/10 21:14:43;;;;;;;4.82;2.30;;;;;;;17.33;100.00;98526.94;15271800;19;20017;-49
2023/10/10 21:20:12;;;;;;;3.05;1.85;;;;;;;17.27;100.00;98528.59;15276610;19;20022;-47
2023/10/10 21:25:41;;;;;;;3.60;2.10;;;;;;;17.23;100.00;98519.13;15272995;19;20074;-49
2023/10/10 21:31:12;;;;;;;5.03;2.10;;;;;;;17.32;100.00;98525.25;15274923;19;20014;-48
2023/10/10 21:36:37;;;;;;;3.75;2.10;;;;;;;17.36;100.00;98516.47;15259354;19;20463;-47
2023/10/10 21:42:01;;;;;;;3.78;2.30;;;;;;;17.31;100.00;98516.22;15271600;19;20696;-49
2023/10/10 21:47:29;;;;;;;6.13;2.28;;;;;;;17.30;100.00;98516.44;15271228;19;20074;-49
2023/10/10 21:52:55;;;;;;;3.67;2.13;;;;;;;17.22;100.00;98510.13;15270671;19;20028;-49
2023/10/10 21:58:20;;;;;;;3.97;2.25;;;;;;;17.15;100.00;98503.78;15269563;19;20334;-49
2023/10/10 22:03:49;;;;;;;5.35;2.50;;;;;;;17.06;100.00;98496.84;15293671;19;20727;-48
2023/10/10 22:09:16;;;;;;;5.00;2.30;;;;;;;17.01;100.00;98499.31;15261952;19;20086;-51
2023/10/10 22:14:41;;;;;;;3.88;2.10;;;;;;;16.97;100.00;98484.44;15270293;19;20015;-48
2023/10/10 22:20:10;;;;;;;3.60;2.17;;;;;;;16.96;100.00;98493.66;15268388;19;20006;-52
2023/10/10 22:25:36;;;;;;;2.90;2.25;;;;;;;16.90;100.00;98485.22;15266515;19;20107;-50
2023/10/10 22:31:01;;;;;;;4.47;2.20;;;;;;;16.81;100.00;98486.41;15270875;19;20018;-49
2023/10/10 22:36:28;;;;;;;3.95;2.22;;;;;;;16.69;100.00;98482.56;15267708;19;20035;-49
2023/10/10 22:41:54;;;;;;;4.72;2.30;;;;;;;16.61;100.00;98484.41;15259232;19;20028;-49
2023/10/10 22:47:20;;;;;;;4.13;2.28;;;;;;;16.51;100.00;98480.34;15270097;19;20475;-50
2023/10/10 22:52:47;;;;;;;5.70;2.30;;;;;;;16.42;100.00;98476.94;15268813;19;20272;-49
2023/10/10 22:58:07;;;;;;;4.45;2.30;;;;;;;16.31;100.00;98484.59;15269496;19;20014;-48
2023/10/10 23:03:32;;;;;;;4.45;2.28;;;;;;;16.27;100.00;98483.34;15266759;19;20417;-49
2023/10/10 23:09:00;;;;;;;5.05;2.30;;;;;;;16.25;100.00;98477.25;15267681;19;20006;-48
2023/10/10 23:14:24;;;;;;;4.72;2.25;;;;;;;16.25;100.00;98479.09;15253813;19;20019;-49
2023/10/10 23:19:49;;;;;;;5.57;2.67;;;;;;;16.18;100.00;98479.06;15267116;19;20040;-49
2023/10/10 23:25:25;;;;;;;3.78;2.35;;;;;;;16.14;100.00;98475.88;15265770;19;20022;-48
2023/10/10 23:30:52;;;;;;;6.70;2.50;;;;;;;16.08;100.00;98479.41;15271194;19;20014;-48
2023/10/10 23:36:18;;;;;;;4.55;2.30;;;;;;;16.02;100.00;98474.75;15278323;19;20010;-51
2023/10/10 23:41:47;;;;;;;3.05;2.20;;;;;;;15.93;100.00;98471.34;15280826;19;20020;-51
2023/10/10 23:47:13;;;;;;;2.50;2.25;;;;;;;15.87;100.00;98474.81;15264333;19;20015;-47
2023/10/10 23:52:39;;;;;;;2.50;2.00;;;;;;;15.78;100.00;98463.19;15274552;19;20421;-47
2023/10/10 23:58:07;;;;;;;3.88;2.30;;;;;;;15.77;100.00;98468.84;15279128;19;20018;-46
